sensor_id;sensor_type;location;lat;lon;timestamp;temperature;humidity
17726;DHT22;8983;53.156;17.960;2023-04-06T00:02:12;0.70;99.90
17726;DHT22;8983;53.156;17.960;2023-04-06T00:04:40;0.80;99.90
17726;DHT22;8983;53.156;17.960;2023-04-06T00:07:08;0.80;99.90
17726;DHT22;8983;53.156;17.960;2023-04-06T00:09:36;0.80;99.90
17726;DHT22;8983;53.156;17.960;2023-04-06T00:12:06;0.80;99.90
17726;DHT22;8983;53.156;17.960;2023-04-06T00:14:34;0.80;99.90
17726;DHT22;8983;53.156;17.960;2023-04-06T00:17:02;0.80;99.90
17726;DHT22;8983;53.156;17.960;2023-04-06T00:19:30;0.80;99.90
17726;DHT22;8983;53.156;17.960;2023-04-06T00:21:58;0.70;99.90
17726;DHT22;8983;53.156;17.960;2023-04-06T00:24:26;0.60;99.90
17726;DHT22;8983;53.156;17.960;2023-04-06T00:26:54;0.70;99.90
17726;DHT22;8983;53.156;17.960;2023-04-06T00:29:24;0.60;99.90
17726;DHT22;8983;53.156;17.960;2023-04-06T00:31:52;0.60;99.90
17726;DHT22;8983;53.156;17.960;2023-04-06T00:34:20;0.60;99.90
17726;DHT22;8983;53.156;17.960;2023-04-06T00:36:48;0.60;99.90
17726;DHT22;8983;53.156;17.960;2023-04-06T00:39:16;0.50;99.90
17726;DHT22;8983;53.156;17.960;2023-04-06T00:41:50;0.50;99.90
17726;DHT22;8983;53.156;17.960;2023-04-06T00:44:18;0.50;99.90
17726;DHT22;8983;53.156;17.960;2023-04-06T00:46:48;0.50;99.90
17726;DHT22;8983;53.156;17.960;2023-04-06T00:49:16;0.50;99.90
17726;DHT22;8983;53.156;17.960;2023-04-06T00:51:44;0.50;99.90
17726;DHT22;8983;53.156;17.960;2023-04-06T00:54:12;0.40;99.90
17726;DHT22;8983;53.156;17.960;2023-04-06T00:56:41;0.40;99.90
17726;DHT22;8983;53.156;17.960;2023-04-06T00:59:10;0.40;99.90
17726;DHT22;8983;53.156;17.960;2023-04-06T01:01:38;0.40;99.90
17726;DHT22;8983;53.156;17.960;2023-04-06T01:04:08;0.40;99.90
17726;DHT22;8983;53.156;17.960;2023-04-06T01:06:36;0.40;99.90
17726;DHT22;8983;53.156;17.960;2023-04-06T01:09:04;0.40;99.90
17726;DHT22;8983;53.156;17.960;2023-04-06T01:11:33;0.40;99.90
17726;DHT22;8983;53.156;17.960;2023-04-06T01:14:01;0.40;99.90
17726;DHT22;8983;53.156;17.960;2023-04-06T01:16:29;0.30;99.90
17726;DHT22;8983;53.156;17.960;2023-04-06T01:18:57;0.30;99.90
17726;DHT22;8983;53.156;17.960;2023-04-06T01:21:26;0.30;99.90
17726;DHT22;8983;53.156;17.960;2023-04-06T01:23:56;0.30;99.90
17726;DHT22;8983;53.156;17.960;2023-04-06T01:26:24;0.20;99.90
17726;DHT22;8983;53.156;17.960;2023-04-06T01:28:52;0.20;99.90
17726;DHT22;8983;53.156;17.960;2023-04-06T01:31:21;0.20;99.90
17726;DHT22;8983;53.156;17.960;2023-04-06T01:33:49;0.20;99.90
17726;DHT22;8983;53.156;17.960;2023-04-06T01:36:17;0.20;99.90
17726;DHT22;8983;53.156;17.960;2023-04-06T01:38:46;0.20;99.90
17726;DHT22;8983;53.156;17.960;2023-04-06T01:41:15;0.20;99.90
17726;DHT22;8983;53.156;17.960;2023-04-06T01:43:44;0.30;99.90
17726;DHT22;8983;53.156;17.960;2023-04-06T01:46:12;0.20;99.90
17726;DHT22;8983;53.156;17.960;2023-04-06T01:48:40;0.30;99.90
17726;DHT22;8983;53.156;17.960;2023-04-06T01:51:08;0.30;99.90
17726;DHT22;8983;53.156;17.960;2023-04-06T01:53:36;0.30;99.90
17726;DHT22;8983;53.156;17.960;2023-04-06T01:56:05;0.20;99.90
17726;DHT22;8983;53.156;17.960;2023-04-06T01:58:35;0.20;99.90
17726;DHT22;8983;53.156;17.960;2023-04-06T02:01:03;0.20;99.90
17726;DHT22;8983;53.156;17.960;2023-04-06T02:03:31;0.20;99.90
17726;DHT22;8983;53.156;17.960;2023-04-06T02:05:59;0.30;99.90
17726;DHT22;8983;53.156;17.960;2023-04-06T02:08:27;0.30;99.90
17726;DHT22;8983;53.156;17.960;2023-04-06T02:10:55;0.30;99.90
17726;DHT22;8983;53.156;17.960;2023-04-06T02:13:23;0.30;99.90
17726;DHT22;8983;53.156;17.960;2023-04-06T02:15:52;0.30;99.90
17726;DHT22;8983;53.156;17.960;2023-04-06T02:18:21;0.30;99.90
17726;DHT22;8983;53.156;17.960;2023-04-06T02:20:49;0.30;99.90
17726;DHT22;8983;53.156;17.960;2023-04-06T02:23:17;0.30;99.90
17726;DHT22;8983;53.156;17.960;2023-04-06T02:25:45;0.20;99.90
17726;DHT22;8983;53.156;17.960;2023-04-06T02:28:13;0.20;99.90
17726;DHT22;8983;53.156;17.960;2023-04-06T02:30:42;0.30;99.90
17726;DHT22;8983;53.156;17.960;2023-04-06T02:33:11;0.10;99.90
17726;DHT22;8983;53.156;17.960;2023-04-06T02:35:39;0.00;99.90
17726;DHT22;8983;53.156;17.960;2023-04-06T02:38:07;0.00;99.90
17726;DHT22;8983;53.156;17.960;2023-04-06T02:40:35;0.00;99.90
17726;DHT22;8983;53.156;17.960;2023-04-06T02:43:03;0.00;99.90
17726;DHT22;8983;53.156;17.960;2023-04-06T02:45:32;0.00;99.90
17726;DHT22;8983;53.156;17.960;2023-04-06T02:47:59;-0.10;99.90
17726;DHT22;8983;53.156;17.960;2023-04-06T02:50:29;-0.20;99.90
17726;DHT22;8983;53.156;17.960;2023-04-06T02:52:57;-0.10;99.90
17726;DHT22;8983;53.156;17.960;2023-04-06T02:55:25;-0.20;99.90
17726;DHT22;8983;53.156;17.960;2023-04-06T02:57:53;-0.20;99.90
17726;DHT22;8983;53.156;17.960;2023-04-06T03:00:21;-0.30;99.90
17726;DHT22;8983;53.156;17.960;2023-04-06T03:02:49;-0.30;99.90
17726;DHT22;8983;53.156;17.960;2023-04-06T03:05:17;-0.40;99.90
17726;DHT22;8983;53.156;17.960;2023-04-06T03:07:46;-0.40;99.90
17726;DHT22;8983;53.156;17.960;2023-04-06T03:10:15;-0.40;99.90
17726;DHT22;8983;53.156;17.960;2023-04-06T03:12:43;-0.30;99.90
17726;DHT22;8983;53.156;17.960;2023-04-06T03:15:11;-0.30;99.90
17726;DHT22;8983;53.156;17.960;2023-04-06T03:17:39;-0.30;99.90
17726;DHT22;8983;53.156;17.960;2023-04-06T03:20:08;-0.20;99.90
17726;DHT22;8983;53.156;17.960;2023-04-06T03:22:36;-0.20;99.90
17726;DHT22;8983;53.156;17.960;2023-04-06T03:25:06;-0.10;99.90
17726;DHT22;8983;53.156;17.960;2023-04-06T03:27:34;-0.10;99.90
17726;DHT22;8983;53.156;17.960;2023-04-06T03:30:03;0.00;99.90
17726;DHT22;8983;53.156;17.960;2023-04-06T03:32:31;0.00;99.90
17726;DHT22;8983;53.156;17.960;2023-04-06T03:34:59;0.00;99.90
17726;DHT22;8983;53.156;17.960;2023-04-06T03:37:27;0.10;99.90
17726;DHT22;8983;53.156;17.960;2023-04-06T03:39:55;0.10;99.90
17726;DHT22;8983;53.156;17.960;2023-04-06T03:42:24;0.10;99.90
17726;DHT22;8983;53.156;17.960;2023-04-06T03:44:53;0.10;99.90
17726;DHT22;8983;53.156;17.960;2023-04-06T03:47:22;0.10;99.90
17726;DHT22;8983;53.156;17.960;2023-04-06T03:49:50;0.10;99.90
17726;DHT22;8983;53.156;17.960;2023-04-06T03:52:18;0.10;99.90
17726;DHT22;8983;53.156;17.960;2023-04-06T03:54:46;0.00;99.90
17726;DHT22;8983;53.156;17.960;2023-04-06T03:57:14;0.10;99.90
17726;DHT22;8983;53.156;17.960;2023-04-06T03:59:44;0.00;99.90
17726;DHT22;8983;53.156;17.960;2023-04-06T04:02:12;0.00;99.90
17726;DHT22;8983;53.156;17.960;2023-04-06T04:04:40;0.00;99.90
17726;DHT22;8983;53.156;17.960;2023-04-06T04:07:08;0.00;99.90
17726;DHT22;8983;53.156;17.960;2023-04-06T04:09:36;0.00;99.90
17726;DHT22;8983;53.156;17.960;2023-04-06T04:12:05;0.00;99.90
17726;DHT22;8983;53.156;17.960;2023-04-06T04:14:33;-0.10;99.90
17726;DHT22;8983;53.156;17.960;2023-04-06T04:17:02;-0.10;99.90
17726;DHT22;8983;53.156;17.960;2023-04-06T04:19:30;-0.10;99.90
17726;DHT22;8983;53.156;17.960;2023-04-06T04:21:58;-0.20;99.90
17726;DHT22;8983;53.156;17.960;2023-04-06T04:24:26;-0.20;99.90
17726;DHT22;8983;53.156;17.960;2023-04-06T04:26:54;-0.20;99.90
17726;DHT22;8983;53.156;17.960;2023-04-06T04:29:23;-0.20;99.90
17726;DHT22;8983;53.156;17.960;2023-04-06T04:31:51;-0.30;99.90
17726;DHT22;8983;53.156;17.960;2023-04-06T04:34:21;-0.30;99.90
17726;DHT22;8983;53.156;17.960;2023-04-06T04:36:52;-0.20;99.90
17726;DHT22;8983;53.156;17.960;2023-04-06T04:39:20;-0.20;99.90
17726;DHT22;8983;53.156;17.960;2023-04-06T04:41:48;-0.20;99.90
17726;DHT22;8983;53.156;17.960;2023-04-06T04:44:16;-0.10;99.90
17726;DHT22;8983;53.156;17.960;2023-04-06T04:46:44;-0.10;99.90
17726;DHT22;8983;53.156;17.960;2023-04-06T04:49:12;-0.10;99.90
17726;DHT22;8983;53.156;17.960;2023-04-06T04:51:41;-0.10;99.90
17726;DHT22;8983;53.156;17.960;2023-04-06T04:54:09;-0.10;99.90
17726;DHT22;8983;53.156;17.960;2023-04-06T04:56:37;0.00;99.90
17726;DHT22;8983;53.156;17.960;2023-04-06T04:59:05;0.00;99.90
17726;DHT22;8983;53.156;17.960;2023-04-06T05:01:33;0.10;99.90
17726;DHT22;8983;53.156;17.960;2023-04-06T05:04:19;0.10;99.90
17726;DHT22;8983;53.156;17.960;2023-04-06T05:06:49;0.20;99.90
17726;DHT22;8983;53.156;17.960;2023-04-06T05:09:17;0.20;99.90
17726;DHT22;8983;53.156;17.960;2023-04-06T05:11:45;0.30;99.90
17726;DHT22;8983;53.156;17.960;2023-04-06T05:14:13;0.30;99.90
17726;DHT22;8983;53.156;17.960;2023-04-06T05:16:42;0.40;99.90
17726;DHT22;8983;53.156;17.960;2023-04-06T05:19:10;0.40;99.90
17726;DHT22;8983;53.156;17.960;2023-04-06T05:21:38;0.40;99.90
17726;DHT22;8983;53.156;17.960;2023-04-06T05:24:08;0.40;99.90
17726;DHT22;8983;53.156;17.960;2023-04-06T05:26:36;0.40;99.90
17726;DHT22;8983;53.156;17.960;2023-04-06T05:29:04;0.40;99.90
17726;DHT22;8983;53.156;17.960;2023-04-06T05:31:33;0.50;99.90
17726;DHT22;8983;53.156;17.960;2023-04-06T05:34:01;0.50;99.90
17726;DHT22;8983;53.156;17.960;2023-04-06T05:36:29;0.50;99.90
17726;DHT22;8983;53.156;17.960;2023-04-06T05:38:58;0.50;99.90
17726;DHT22;8983;53.156;17.960;2023-04-06T05:41:28;0.50;99.90
17726;DHT22;8983;53.156;17.960;2023-04-06T05:43:56;0.50;99.90
17726;DHT22;8983;53.156;17.960;2023-04-06T05:46:24;0.50;99.90
17726;DHT22;8983;53.156;17.960;2023-04-06T05:48:52;0.50;99.90
17726;DHT22;8983;53.156;17.960;2023-04-06T05:51:20;0.50;99.90
17726;DHT22;8983;53.156;17.960;2023-04-06T05:53:49;0.50;99.90
17726;DHT22;8983;53.156;17.960;2023-04-06T05:56:17;0.60;99.90
17726;DHT22;8983;53.156;17.960;2023-04-06T05:58:46;0.60;99.90
17726;DHT22;8983;53.156;17.960;2023-04-06T06:01:14;0.70;99.90
17726;DHT22;8983;53.156;17.960;2023-04-06T06:03:42;0.70;99.90
17726;DHT22;8983;53.156;17.960;2023-04-06T06:06:11;0.80;99.90
17726;DHT22;8983;53.156;17.960;2023-04-06T06:08:39;0.90;99.90
17726;DHT22;8983;53.156;17.960;2023-04-06T06:11:07;1.00;99.90
17726;DHT22;8983;53.156;17.960;2023-04-06T06:13:35;1.00;99.90
17726;DHT22;8983;53.156;17.960;2023-04-06T06:16:05;1.00;99.90
17726;DHT22;8983;53.156;17.960;2023-04-06T06:18:34;1.10;99.90
17726;DHT22;8983;53.156;17.960;2023-04-06T06:21:03;1.10;99.90
17726;DHT22;8983;53.156;17.960;2023-04-06T06:23:31;1.10;99.90
17726;DHT22;8983;53.156;17.960;2023-04-06T06:25:59;1.10;99.90
17726;DHT22;8983;53.156;17.960;2023-04-06T06:28:28;1.10;99.90
17726;DHT22;8983;53.156;17.960;2023-04-06T06:30:56;1.20;99.90
17726;DHT22;8983;53.156;17.960;2023-04-06T06:33:26;1.20;99.90
17726;DHT22;8983;53.156;17.960;2023-04-06T06:35:54;1.30;99.90
17726;DHT22;8983;53.156;17.960;2023-04-06T06:38:22;1.30;99.90
17726;DHT22;8983;53.156;17.960;2023-04-06T06:40:50;1.30;99.90
17726;DHT22;8983;53.156;17.960;2023-04-06T06:43:19;1.40;99.90
17726;DHT22;8983;53.156;17.960;2023-04-06T06:45:47;1.50;99.90
17726;DHT22;8983;53.156;17.960;2023-04-06T06:48:15;1.50;99.90
17726;DHT22;8983;53.156;17.960;2023-04-06T06:50:44;1.60;99.90
17726;DHT22;8983;53.156;17.960;2023-04-06T06:53:14;1.70;99.90
17726;DHT22;8983;53.156;17.960;2023-04-06T06:55:42;1.70;99.90
17726;DHT22;8983;53.156;17.960;2023-04-06T06:58:12;1.80;99.90
17726;DHT22;8983;53.156;17.960;2023-04-06T07:00:40;1.90;99.90
17726;DHT22;8983;53.156;17.960;2023-04-06T07:03:08;1.90;99.90
17726;DHT22;8983;53.156;17.960;2023-04-06T07:05:36;2.00;99.90
17726;DHT22;8983;53.156;17.960;2023-04-06T07:08:08;2.00;99.90
17726;DHT22;8983;53.156;17.960;2023-04-06T07:10:36;2.10;99.90
17726;DHT22;8983;53.156;17.960;2023-04-06T07:13:04;2.20;99.90
17726;DHT22;8983;53.156;17.960;2023-04-06T07:15:33;2.30;99.90
17726;DHT22;8983;53.156;17.960;2023-04-06T07:18:01;2.40;99.90
17726;DHT22;8983;53.156;17.960;2023-04-06T07:20:29;2.40;99.90
17726;DHT22;8983;53.156;17.960;2023-04-06T07:22:57;2.50;99.90
17726;DHT22;8983;53.156;17.960;2023-04-06T07:25:27;2.50;99.90
17726;DHT22;8983;53.156;17.960;2023-04-06T07:27:55;2.70;99.90
17726;DHT22;8983;53.156;17.960;2023-04-06T07:30:24;2.70;99.90
17726;DHT22;8983;53.156;17.960;2023-04-06T07:32:53;2.80;99.90
17726;DHT22;8983;53.156;17.960;2023-04-06T07:35:22;3.00;99.90
17726;DHT22;8983;53.156;17.960;2023-04-06T07:37:50;3.10;99.90
17726;DHT22;8983;53.156;17.960;2023-04-06T07:40:18;3.20;99.90
17726;DHT22;8983;53.156;17.960;2023-04-06T07:42:48;3.30;99.90
17726;DHT22;8983;53.156;17.960;2023-04-06T07:45:17;3.30;99.90
17726;DHT22;8983;53.156;17.960;2023-04-06T07:47:45;3.40;99.90
17726;DHT22;8983;53.156;17.960;2023-04-06T07:50:13;3.40;99.90
17726;DHT22;8983;53.156;17.960;2023-04-06T07:52:42;3.40;99.90
17726;DHT22;8983;53.156;17.960;2023-04-06T07:55:10;3.50;99.90
17726;DHT22;8983;53.156;17.960;2023-04-06T07:57:38;3.50;99.90
17726;DHT22;8983;53.156;17.960;2023-04-06T08:00:09;3.60;99.90
17726;DHT22;8983;53.156;17.960;2023-04-06T08:02:38;3.60;99.90
17726;DHT22;8983;53.156;17.960;2023-04-06T08:05:06;3.60;99.90
17726;DHT22;8983;53.156;17.960;2023-04-06T08:07:35;3.60;99.90
17726;DHT22;8983;53.156;17.960;2023-04-06T08:10:03;3.60;99.90
17726;DHT22;8983;53.156;17.960;2023-04-06T08:12:32;3.70;99.90
17726;DHT22;8983;53.156;17.960;2023-04-06T08:15:00;3.60;99.90
17726;DHT22;8983;53.156;17.960;2023-04-06T08:17:32;3.60;99.90
17726;DHT22;8983;53.156;17.960;2023-04-06T08:20:01;3.60;99.90
17726;DHT22;8983;53.156;17.960;2023-04-06T08:22:30;3.60;99.90
17726;DHT22;8983;53.156;17.960;2023-04-06T08:24:58;3.60;99.90
17726;DHT22;8983;53.156;17.960;2023-04-06T08:27:26;3.60;99.90
17726;DHT22;8983;53.156;17.960;2023-04-06T08:29:55;3.60;99.90
17726;DHT22;8983;53.156;17.960;2023-04-06T08:32:25;3.70;99.90
17726;DHT22;8983;53.156;17.960;2023-04-06T08:34:54;3.80;99.90
17726;DHT22;8983;53.156;17.960;2023-04-06T08:37:22;3.90;99.90
17726;DHT22;8983;53.156;17.960;2023-04-06T08:39:51;4.00;99.90
17726;DHT22;8983;53.156;17.960;2023-04-06T08:42:20;4.20;99.90
17726;DHT22;8983;53.156;17.960;2023-04-06T08:44:49;4.30;99.90
17726;DHT22;8983;53.156;17.960;2023-04-06T08:47:18;4.40;99.90
17726;DHT22;8983;53.156;17.960;2023-04-06T08:49:51;4.50;99.90
17726;DHT22;8983;53.156;17.960;2023-04-06T08:52:21;4.70;99.90
17726;DHT22;8983;53.156;17.960;2023-04-06T08:54:50;4.80;99.90
17726;DHT22;8983;53.156;17.960;2023-04-06T08:57:18;5.00;99.90
17726;DHT22;8983;53.156;17.960;2023-04-06T08:59:47;5.00;99.90
17726;DHT22;8983;53.156;17.960;2023-04-06T09:02:18;5.20;99.90
17726;DHT22;8983;53.156;17.960;2023-04-06T09:04:48;5.30;99.90
17726;DHT22;8983;53.156;17.960;2023-04-06T09:07:17;5.50;99.90
17726;DHT22;8983;53.156;17.960;2023-04-06T09:09:46;5.60;99.90
17726;DHT22;8983;53.156;17.960;2023-04-06T09:12:25;5.70;99.90
17726;DHT22;8983;53.156;17.960;2023-04-06T09:14:54;5.70;99.90
17726;DHT22;8983;53.156;17.960;2023-04-06T09:17:24;5.70;99.90
17726;DHT22;8983;53.156;17.960;2023-04-06T09:19:52;5.70;99.90
17726;DHT22;8983;53.156;17.960;2023-04-06T09:22:20;5.80;99.90
17726;DHT22;8983;53.156;17.960;2023-04-06T09:24:51;5.90;99.90
17726;DHT22;8983;53.156;17.960;2023-04-06T09:27:30;6.10;99.90
17726;DHT22;8983;53.156;17.960;2023-04-06T09:30:04;6.30;99.90
17726;DHT22;8983;53.156;17.960;2023-04-06T09:32:43;6.40;99.90
17726;DHT22;8983;53.156;17.960;2023-04-06T09:35:12;6.50;99.90
17726;DHT22;8983;53.156;17.960;2023-04-06T09:37:41;6.70;99.90
17726;DHT22;8983;53.156;17.960;2023-04-06T09:40:12;6.90;99.90
17726;DHT22;8983;53.156;17.960;2023-04-06T09:42:42;7.20;99.90
17726;DHT22;8983;53.156;17.960;2023-04-06T09:45:10;7.50;99.90
17726;DHT22;8983;53.156;17.960;2023-04-06T09:47:40;7.70;99.50
17726;DHT22;8983;53.156;17.960;2023-04-06T09:50:12;7.90;99.00
17726;DHT22;8983;53.156;17.960;2023-04-06T09:52:42;8.00;98.50
17726;DHT22;8983;53.156;17.960;2023-04-06T09:55:20;8.20;98.10
17726;DHT22;8983;53.156;17.960;2023-04-06T09:57:55;8.50;97.80
17726;DHT22;8983;53.156;17.960;2023-04-06T10:00:25;8.90;97.20
17726;DHT22;8983;53.156;17.960;2023-04-06T10:02:58;9.30;96.70
17726;DHT22;8983;53.156;17.960;2023-04-06T10:05:32;9.70;96.00
17726;DHT22;8983;53.156;17.960;2023-04-06T10:08:05;10.10;95.30
17726;DHT22;8983;53.156;17.960;2023-04-06T10:10:36;10.50;94.70
17726;DHT22;8983;53.156;17.960;2023-04-06T10:13:05;10.80;93.80
17726;DHT22;8983;53.156;17.960;2023-04-06T10:15:34;11.00;92.90
17726;DHT22;8983;53.156;17.960;2023-04-06T10:18:02;11.10;91.70
17726;DHT22;8983;53.156;17.960;2023-04-06T10:20:36;11.10;91.00
17726;DHT22;8983;53.156;17.960;2023-04-06T10:23:09;11.20;89.90
17726;DHT22;8983;53.156;17.960;2023-04-06T10:25:52;11.10;88.80
17726;DHT22;8983;53.156;17.960;2023-04-06T10:28:20;11.00;87.60
17726;DHT22;8983;53.156;17.960;2023-04-06T10:30:48;10.90;87.60
17726;DHT22;8983;53.156;17.960;2023-04-06T10:33:17;10.90;87.20
17726;DHT22;8983;53.156;17.960;2023-04-06T10:35:45;10.80;86.60
17726;DHT22;8983;53.156;17.960;2023-04-06T10:38:14;10.90;85.80
17726;DHT22;8983;53.156;17.960;2023-04-06T10:40:48;10.60;85.20
17726;DHT22;8983;53.156;17.960;2023-04-06T10:43:19;10.40;84.70
17726;DHT22;8983;53.156;17.960;2023-04-06T10:45:55;10.30;83.80
17726;DHT22;8983;53.156;17.960;2023-04-06T10:48:24;10.10;83.10
17726;DHT22;8983;53.156;17.960;2023-04-06T10:50:54;10.30;84.30
17726;DHT22;8983;53.156;17.960;2023-04-06T10:53:23;10.60;83.30
17726;DHT22;8983;53.156;17.960;2023-04-06T10:55:55;11.10;82.50
17726;DHT22;8983;53.156;17.960;2023-04-06T10:58:25;11.40;80.90
17726;DHT22;8983;53.156;17.960;2023-04-06T11:00:54;11.50;79.60
17726;DHT22;8983;53.156;17.960;2023-04-06T11:03:23;11.60;79.00
17726;DHT22;8983;53.156;17.960;2023-04-06T11:05:51;11.90;78.70
17726;DHT22;8983;53.156;17.960;2023-04-06T11:08:24;12.20;78.40
17726;DHT22;8983;53.156;17.960;2023-04-06T11:11:04;12.40;77.70
17726;DHT22;8983;53.156;17.960;2023-04-06T11:13:40;12.50;76.20
17726;DHT22;8983;53.156;17.960;2023-04-06T11:16:13;12.50;76.00
17726;DHT22;8983;53.156;17.960;2023-04-06T11:18:52;12.40;75.10
17726;DHT22;8983;53.156;17.960;2023-04-06T11:21:32;12.20;74.30
17726;DHT22;8983;53.156;17.960;2023-04-06T11:24:05;12.00;74.30
17726;DHT22;8983;53.156;17.960;2023-04-06T11:26:38;12.20;74.50
17726;DHT22;8983;53.156;17.960;2023-04-06T11:29:07;12.50;74.10
17726;DHT22;8983;53.156;17.960;2023-04-06T11:31:44;12.80;73.50
17726;DHT22;8983;53.156;17.960;2023-04-06T11:34:15;12.90;72.50
17726;DHT22;8983;53.156;17.960;2023-04-06T11:36:44;12.80;71.80
17726;DHT22;8983;53.156;17.960;2023-04-06T11:39:13;12.60;71.20
17726;DHT22;8983;53.156;17.960;2023-04-06T11:41:47;12.60;71.10
17726;DHT22;8983;53.156;17.960;2023-04-06T11:44:26;12.60;70.80
17726;DHT22;8983;53.156;17.960;2023-04-06T11:46:56;12.90;70.80
17726;DHT22;8983;53.156;17.960;2023-04-06T11:49:27;13.10;70.30
17726;DHT22;8983;53.156;17.960;2023-04-06T11:51:56;13.40;69.90
17726;DHT22;8983;53.156;17.960;2023-04-06T11:54:31;13.80;69.60
17726;DHT22;8983;53.156;17.960;2023-04-06T11:57:01;14.20;68.90
17726;DHT22;8983;53.156;17.960;2023-04-06T11:59:29;14.50;68.30
17726;DHT22;8983;53.156;17.960;2023-04-06T12:01:58;14.70;67.50
17726;DHT22;8983;53.156;17.960;2023-04-06T12:04:26;14.90;66.80
17726;DHT22;8983;53.156;17.960;2023-04-06T12:06:54;15.00;66.10
17726;DHT22;8983;53.156;17.960;2023-04-06T12:09:22;15.10;65.40
17726;DHT22;8983;53.156;17.960;2023-04-06T12:11:50;15.20;64.90
17726;DHT22;8983;53.156;17.960;2023-04-06T12:14:20;15.20;64.50
17726;DHT22;8983;53.156;17.960;2023-04-06T12:16:49;15.40;64.20
17726;DHT22;8983;53.156;17.960;2023-04-06T12:19:17;15.50;63.80
17726;DHT22;8983;53.156;17.960;2023-04-06T12:21:45;15.60;62.70
17726;DHT22;8983;53.156;17.960;2023-04-06T12:24:13;15.50;61.70
17726;DHT22;8983;53.156;17.960;2023-04-06T12:26:42;15.20;61.30
17726;DHT22;8983;53.156;17.960;2023-04-06T12:29:10;15.20;61.10
17726;DHT22;8983;53.156;17.960;2023-04-06T12:31:41;15.30;61.40
17726;DHT22;8983;53.156;17.960;2023-04-06T12:34:11;15.50;61.30
17726;DHT22;8983;53.156;17.960;2023-04-06T12:36:39;15.60;60.90
17726;DHT22;8983;53.156;17.960;2023-04-06T12:39:07;15.90;60.50
17726;DHT22;8983;53.156;17.960;2023-04-06T12:41:35;16.00;60.80
17726;DHT22;8983;53.156;17.960;2023-04-06T12:44:03;16.20;59.70
17726;DHT22;8983;53.156;17.960;2023-04-06T12:46:31;16.30;59.50
17726;DHT22;8983;53.156;17.960;2023-04-06T12:49:01;16.40;59.10
17726;DHT22;8983;53.156;17.960;2023-04-06T12:51:30;16.40;58.80
17726;DHT22;8983;53.156;17.960;2023-04-06T12:53:58;16.50;58.70
17726;DHT22;8983;53.156;17.960;2023-04-06T12:56:27;16.60;58.50
17726;DHT22;8983;53.156;17.960;2023-04-06T12:58:55;16.50;57.80
17726;DHT22;8983;53.156;17.960;2023-04-06T13:01:24;16.40;57.40
17726;DHT22;8983;53.156;17.960;2023-04-06T13:03:55;16.30;57.20
17726;DHT22;8983;53.156;17.960;2023-04-06T13:06:25;16.40;57.10
17726;DHT22;8983;53.156;17.960;2023-04-06T13:08:54;16.30;56.70
17726;DHT22;8983;53.156;17.960;2023-04-06T13:11:23;16.50;56.50
17726;DHT22;8983;53.156;17.960;2023-04-06T13:13:54;16.50;56.10
17726;DHT22;8983;53.156;17.960;2023-04-06T13:16:22;16.50;55.90
17726;DHT22;8983;53.156;17.960;2023-04-06T13:18:50;16.30;55.60
17726;DHT22;8983;53.156;17.960;2023-04-06T13:21:18;16.20;55.60
17726;DHT22;8983;53.156;17.960;2023-04-06T13:23:49;16.10;55.70
17726;DHT22;8983;53.156;17.960;2023-04-06T13:26:17;16.00;55.80
17726;DHT22;8983;53.156;17.960;2023-04-06T13:28:45;16.00;56.10
17726;DHT22;8983;53.156;17.960;2023-04-06T13:31:13;15.90;56.10
17726;DHT22;8983;53.156;17.960;2023-04-06T13:33:41;15.80;56.20
17726;DHT22;8983;53.156;17.960;2023-04-06T13:36:09;15.60;56.30
17726;DHT22;8983;53.156;17.960;2023-04-06T13:38:38;15.50;56.50
17726;DHT22;8983;53.156;17.960;2023-04-06T13:41:08;15.60;56.70
17726;DHT22;8983;53.156;17.960;2023-04-06T13:43:36;15.80;56.60
17726;DHT22;8983;53.156;17.960;2023-04-06T13:46:04;15.80;57.10
17726;DHT22;8983;53.156;17.960;2023-04-06T13:48:32;15.70;56.40
17726;DHT22;8983;53.156;17.960;2023-04-06T13:51:08;15.60;56.60
17726;DHT22;8983;53.156;17.960;2023-04-06T13:53:36;15.60;56.80
17726;DHT22;8983;53.156;17.960;2023-04-06T13:56:09;15.60;56.70
17726;DHT22;8983;53.156;17.960;2023-04-06T13:58:37;15.50;56.60
17726;DHT22;8983;53.156;17.960;2023-04-06T14:01:06;15.50;56.80
17726;DHT22;8983;53.156;17.960;2023-04-06T14:03:37;15.40;56.70
17726;DHT22;8983;53.156;17.960;2023-04-06T14:06:12;15.20;56.80
17726;DHT22;8983;53.156;17.960;2023-04-06T14:08:57;15.00;57.10
17726;DHT22;8983;53.156;17.960;2023-04-06T14:11:26;14.70;57.40
17726;DHT22;8983;53.156;17.960;2023-04-06T14:13:55;14.60;57.80
17726;DHT22;8983;53.156;17.960;2023-04-06T14:16:24;14.50;58.10
17726;DHT22;8983;53.156;17.960;2023-04-06T14:18:53;14.50;58.30
17726;DHT22;8983;53.156;17.960;2023-04-06T14:21:21;14.60;58.30
17726;DHT22;8983;53.156;17.960;2023-04-06T14:23:50;14.70;58.30
17726;DHT22;8983;53.156;17.960;2023-04-06T14:26:19;14.90;58.40
17726;DHT22;8983;53.156;17.960;2023-04-06T14:28:48;15.20;58.20
17726;DHT22;8983;53.156;17.960;2023-04-06T14:31:17;15.50;58.00
17726;DHT22;8983;53.156;17.960;2023-04-06T14:33:45;15.70;57.90
17726;DHT22;8983;53.156;17.960;2023-04-06T14:36:13;15.90;57.80
17726;DHT22;8983;53.156;17.960;2023-04-06T14:38:42;16.00;57.80
17726;DHT22;8983;53.156;17.960;2023-04-06T14:41:15;16.20;57.80
17726;DHT22;8983;53.156;17.960;2023-04-06T14:43:43;16.40;57.60
17726;DHT22;8983;53.156;17.960;2023-04-06T14:46:13;16.50;57.40
17726;DHT22;8983;53.156;17.960;2023-04-06T14:48:42;16.70;58.00
17726;DHT22;8983;53.156;17.960;2023-04-06T14:51:11;16.80;57.00
17726;DHT22;8983;53.156;17.960;2023-04-06T14:53:39;16.80;56.70
17726;DHT22;8983;53.156;17.960;2023-04-06T14:56:08;16.70;56.70
17726;DHT22;8983;53.156;17.960;2023-04-06T14:58:36;16.60;56.70
17726;DHT22;8983;53.156;17.960;2023-04-06T15:01:04;16.30;56.70
17726;DHT22;8983;53.156;17.960;2023-04-06T15:03:34;16.00;57.00
17726;DHT22;8983;53.156;17.960;2023-04-06T15:06:03;15.70;57.20
17726;DHT22;8983;53.156;17.960;2023-04-06T15:08:32;15.30;57.20
17726;DHT22;8983;53.156;17.960;2023-04-06T15:11:01;14.80;57.40
17726;DHT22;8983;53.156;17.960;2023-04-06T15:13:29;14.30;57.90
17726;DHT22;8983;53.156;17.960;2023-04-06T15:15:57;14.10;58.30
17726;DHT22;8983;53.156;17.960;2023-04-06T15:18:27;13.80;58.60
17726;DHT22;8983;53.156;17.960;2023-04-06T15:20:57;13.60;58.80
17726;DHT22;8983;53.156;17.960;2023-04-06T15:23:25;13.40;59.00
17726;DHT22;8983;53.156;17.960;2023-04-06T15:25:56;13.20;59.20
17726;DHT22;8983;53.156;17.960;2023-04-06T15:28:24;13.10;59.60
17726;DHT22;8983;53.156;17.960;2023-04-06T15:30:53;12.90;59.90
17726;DHT22;8983;53.156;17.960;2023-04-06T15:33:22;12.80;60.10
17726;DHT22;8983;53.156;17.960;2023-04-06T15:35:50;12.70;60.40
17726;DHT22;8983;53.156;17.960;2023-04-06T15:38:19;12.70;60.70
17726;DHT22;8983;53.156;17.960;2023-04-06T15:40:48;12.70;60.90
17726;DHT22;8983;53.156;17.960;2023-04-06T15:43:17;12.60;61.10
17726;DHT22;8983;53.156;17.960;2023-04-06T15:45:45;12.50;61.40
17726;DHT22;8983;53.156;17.960;2023-04-06T15:48:13;12.40;61.60
17726;DHT22;8983;53.156;17.960;2023-04-06T15:50:41;12.40;61.90
17726;DHT22;8983;53.156;17.960;2023-04-06T15:53:09;12.30;62.10